Katalog artikala AutoNuic

Ukupno 38 aktivnih artikala (14.07.2020)
OLX ID SLIKA NAZIV CIJENA DATUM OBJAVE
38920504 VW PASSAT B8 2.0 TDI  DSG HIGHLINE 2015. VW PASSAT B8 2.0 TDI DSG HIGHLINE 2015. 39.000 KM 14.07.2020
38608282 VOLVO XC90 B5 AWD A Momentum Pro DYNAMIC VOLVO XC90 B5 AWD A Momentum Pro DYNAMIC 114.280 KM 04.07.2020
38658995 VOLVO XC60 B4 (P)  A Momentum Pro *AKCIJSKA PONUDA* VOLVO XC60 B4 (P) A Momentum Pro *AKCIJSKA PONUDA* 78.214 KM 04.07.2020
38659200 Volvo XC90 B5 AWD A Momentum Pro *AKCIJSKA PONUDA* Volvo XC90 B5 AWD A Momentum Pro *AKCIJSKA PONUDA* 111.463 KM 04.07.2020
38688610 Volvo XC60 B4 AWD A Momentum Pro Volvo XC60 B4 AWD A Momentum Pro 96.900 KM 04.07.2020
38660224 Toyota C-HR MC 1.8 HSD E-CVT C-LUB Toyota C-HR MC 1.8 HSD E-CVT C-LUB 48.100 KM 04.07.2020
38205030 TOYOTA COROLLA HB 1.8 HSD E-CVT SPORT TOYOTA COROLLA HB 1.8 HSD E-CVT SPORT 46.000 KM 04.07.2020
37363084 Toyota RAV4 AWD 2.2D EXECUTIVE Toyota RAV4 AWD 2.2D EXECUTIVE 30.900 KM 04.07.2020
36576704 Volvo XC60 B5 AWD A Inscription *Demo vozilo* Volvo XC60 B5 AWD A Inscription *Demo vozilo* 141.176 KM 136.450 KM 04.07.2020
36926401 Volvo S80 D5 A Summum Volvo S80 D5 A Summum 16.500 KM 04.07.2020
34545184 TOYOTA RAV4 2.5 HSD 4x2 5D E-CVT STYLE TOYOTA RAV4 2.5 HSD 4x2 5D E-CVT STYLE 69.500 KM 04.07.2020
36346319 Toyota COROLLA SD 1.6 STYLE Toyota COROLLA SD 1.6 STYLE 27.000 KM 04.07.2020
32072292 Volvo V90 Cross Country  *AKCIJSKA PONUDA* Volvo V90 Cross Country *AKCIJSKA PONUDA* 122.900 KM 04.07.2020
35722744 Audi A3 sedan 1.4 TFSI Audi A3 sedan 1.4 TFSI 29.900 KM 04.07.2020
31033729 Volvo V60 D3 A Momentum *Demo vozilo* Volvo V60 D3 A Momentum *Demo vozilo* 81.900 KM 69.900 KM 04.07.2020
33022245 Toyota YARIS VVT-i Stella  AKCIJA! Toyota YARIS VVT-i Stella AKCIJA! 21.990 KM 04.07.2020
32284982 Toyota LAND CRUISER 2.8D-4D LIMITED *AKCIJSKA PONUDA* Toyota LAND CRUISER 2.8D-4D LIMITED *AKCIJSKA PONUDA* 104.830 KM 04.07.2020
33694215 TOYOTA CAMRY 2.5 HSD SD E-CVT EXECUTIVE TOYOTA CAMRY 2.5 HSD SD E-CVT EXECUTIVE 76.100 KM 04.07.2020
29112923 Volvo S90 D5 AWD A  Inscription Volvo S90 D5 AWD A Inscription 75.000 KM 04.07.2020
17074266 Toyota Auris 2,0 D-4d Style Toyota Auris 2,0 D-4d Style 19.900 KM 04.07.2020
15651196 Toyota Avensis 2,0 D-4D Luna WG Toyota Avensis 2,0 D-4D Luna WG 21.500 KM 04.07.2020
35120164 TOYOTA CAMRY 2.5 HSD SD E-CVT EXECUTIVE DEMO vozilo TOYOTA CAMRY 2.5 HSD SD E-CVT EXECUTIVE DEMO vozilo 75.900 KM 04.07.2020
35214806 Volvo V40 Cross Country T4 AWD A Volvo V40 Cross Country T4 AWD A 39.900 KM 04.07.2020
36010858 Volvo XC60 D5 AWD A Kinetic 2009. godina Volvo XC60 D5 AWD A Kinetic 2009. godina 22.300 KM 04.07.2020
35920149 Jeep Renegade 1.6 Multijet 2018. godina Jeep Renegade 1.6 Multijet 2018. godina 34.600 KM 32.900 KM 04.07.2020
36007975 Toyota COROLLA SEDAN 1.6 VALVEMATIC 4D M/T6 LUNA Toyota COROLLA SEDAN 1.6 VALVEMATIC 4D M/T6 LUNA 30.900 KM 04.07.2020
35804870 Toyota YARIS 1.5 Hybrid  E-CVT Stella Toyota YARIS 1.5 Hybrid E-CVT Stella 30.900 KM 04.07.2020
36143661 TOYOTA COROLLA HB 1.8 HSD E-CVT SPORT TOYOTA COROLLA HB 1.8 HSD E-CVT SPORT 48.710 KM 04.07.2020
36916583 Toyota C-HR 1.8 HSD CVT C-ENTER *AKCIJSKA PONUDA* Toyota C-HR 1.8 HSD CVT C-ENTER *AKCIJSKA PONUDA* 44.350 KM 04.07.2020
36913446 Volvo S90 D3 A Momentum Pro *AKCIJSKA PONUDA* Volvo S90 D3 A Momentum Pro *AKCIJSKA PONUDA* 74.302 KM 04.07.2020
36913786 Volvo S60 T4 A Momentum Pro *AKCIJSKA PONUDA* Volvo S60 T4 A Momentum Pro *AKCIJSKA PONUDA* 70.390 KM 04.07.2020
37932401 TOYOTA COROLLA 1.2T DUAL VVT-i SPORT TOYOTA COROLLA 1.2T DUAL VVT-i SPORT 36.900 KM 04.07.2020
38358023 TOYOTA AVENSIS 1.6 benzin, 2012. godina TOYOTA AVENSIS 1.6 benzin, 2012. godina 16.900 KM 04.07.2020
38330824 Volvo S60 T5 A R-Design Volvo S60 T5 A R-Design 91.900 KM 84.750 KM 04.07.2020
38584456 TOYOTA RAV4 MY20 2.5 HSD AWD E-CVT ELEGANT TECH TOYOTA RAV4 MY20 2.5 HSD AWD E-CVT ELEGANT TECH 78.490 KM 04.07.2020
38555075 Mercedes ML 350 BLUETEC 4matic - AMG Mercedes ML 350 BLUETEC 4matic - AMG 60.900 KM 04.07.2020
38559340 Toyota C-HR 1.8 HSD E-CVT C-HIC    *DEMO vozilo* Toyota C-HR 1.8 HSD E-CVT C-HIC *DEMO vozilo* 50.100 KM 04.07.2020
38768037 Audi SQ5 3.0TDI quattro Audi SQ5 3.0TDI quattro 65.000 KM 03.07.2020